createdAt,value
2022-10-06T00:01:09.791Z,94.40
2022-10-06T00:03:38.756Z,94.66
2022-10-06T00:06:07.525Z,94.29
2022-10-06T00:08:38.366Z,93.86
2022-10-06T00:11:06.843Z,94.41
2022-10-06T00:13:35.213Z,95.71
2022-10-06T00:16:04.864Z,95.86
2022-10-06T00:18:32.885Z,95.65
2022-10-06T00:21:04.171Z,95.13
2022-10-06T00:23:32.643Z,95.16
2022-10-06T00:26:00.572Z,95.43
2022-10-06T00:28:29.060Z,95.45
2022-10-06T00:30:58.155Z,96.44
2022-10-06T00:33:27.416Z,96.19
2022-10-06T00:35:58.547Z,95.91
2022-10-06T00:38:27.999Z,95.65
2022-10-06T00:40:56.408Z,96.13
2022-10-06T00:43:47.868Z,96.68
2022-10-06T00:46:21.532Z,96.42
2022-10-06T00:49:00.757Z,96.35
2022-10-06T00:51:30.561Z,96.71
2022-10-06T00:53:58.816Z,96.43
2022-10-06T00:56:27.143Z,96.39
2022-10-06T00:58:54.988Z,96.83
2022-10-06T01:01:22.981Z,96.94
2022-10-06T01:04:00.429Z,97.71
2022-10-06T01:06:28.826Z,97.91
2022-10-06T01:08:56.743Z,97.77
2022-10-06T01:11:24.667Z,97.05
2022-10-06T01:13:52.556Z,97.37
2022-10-06T01:16:24.344Z,96.78
2022-10-06T01:18:56.384Z,97.00
2022-10-06T01:21:30.919Z,96.99
2022-10-06T01:24:02.231Z,96.60
2022-10-06T01:26:32.822Z,96.08
2022-10-06T01:29:01.052Z,96.53
2022-10-06T01:31:30.367Z,96.66
2022-10-06T01:33:58.731Z,95.81
2022-10-06T01:36:27.093Z,96.90
2022-10-06T01:38:54.991Z,96.53
2022-10-06T01:41:25.628Z,96.44
2022-10-06T01:43:53.429Z,96.46
2022-10-06T01:46:21.954Z,96.98
2022-10-06T01:48:50.265Z,97.27
2022-10-06T01:51:18.312Z,97.03
2022-10-06T01:53:46.179Z,96.93
2022-10-06T01:56:14.155Z,97.40
2022-10-06T01:58:44.420Z,97.32
2022-10-06T02:01:13.631Z,96.75
2022-10-06T02:03:42.059Z,96.75
2022-10-06T02:06:11.737Z,98.04
2022-10-06T02:08:40.040Z,98.01
2022-10-06T02:11:10.099Z,96.82
2022-10-06T02:13:43.744Z,96.92
2022-10-06T02:16:13.837Z,97.03
2022-10-06T02:18:43.134Z,97.36
2022-10-06T02:21:16.733Z,98.13
2022-10-06T02:23:44.805Z,98.67
2022-10-06T02:26:14.171Z,97.97
2022-10-06T02:28:42.200Z,98.80
2022-10-06T02:31:14.314Z,99.08
2022-10-06T02:33:44.772Z,100.00
2022-10-06T02:36:14.882Z,99.15
2022-10-06T02:38:42.811Z,100.00
2022-10-06T02:41:11.686Z,100.00
2022-10-06T02:43:40.080Z,100.00
2022-10-06T02:46:10.456Z,100.00
2022-10-06T02:48:42.414Z,100.00
2022-10-06T02:51:13.668Z,100.00
2022-10-06T02:53:44.411Z,100.00
2022-10-06T02:56:16.048Z,100.00
2022-10-06T02:58:44.704Z,100.00
2022-10-06T03:01:19.917Z,100.00
2022-10-06T03:03:49.480Z,100.00
2022-10-06T03:06:24.172Z,100.00
2022-10-06T03:09:18.820Z,100.00
2022-10-06T03:11:46.741Z,100.00
2022-10-06T03:14:25.097Z,100.00
2022-10-06T03:16:54.890Z,100.00
2022-10-06T03:19:27.974Z,100.00
2022-10-06T03:21:56.518Z,100.00
2022-10-06T03:24:36.312Z,100.00
2022-10-06T03:27:04.377Z,100.00
2022-10-06T03:29:32.457Z,100.00
2022-10-06T03:32:00.525Z,100.00
2022-10-06T03:34:30.867Z,100.00
2022-10-06T03:37:00.389Z,100.00
2022-10-06T03:39:29.506Z,100.00
2022-10-06T03:41:57.472Z,100.00
2022-10-06T03:44:25.514Z,100.00
2022-10-06T03:46:53.579Z,100.00
2022-10-06T03:49:21.599Z,100.00
2022-10-06T03:51:50.885Z,100.00
2022-10-06T03:54:25.748Z,100.00
2022-10-06T03:56:54.740Z,100.00
2022-10-06T03:59:23.014Z,100.00
2022-10-06T04:01:53.053Z,100.00
2022-10-06T04:04:28.050Z,100.00
2022-10-06T04:07:02.687Z,100.00
2022-10-06T04:09:30.784Z,100.00
2022-10-06T04:11:58.755Z,100.00
2022-10-06T04:14:26.654Z,100.00
2022-10-06T04:16:57.124Z,100.00
2022-10-06T04:19:45.250Z,100.00
2022-10-06T04:22:15.719Z,100.00
2022-10-06T04:24:43.694Z,100.00
2022-10-06T04:27:29.666Z,100.00
2022-10-06T04:30:10.338Z,100.00
2022-10-06T04:32:38.478Z,100.00
2022-10-06T04:35:07.117Z,100.00
2022-10-06T04:37:36.443Z,100.00
2022-10-06T04:40:05.325Z,100.00
2022-10-06T04:42:35.405Z,100.00
2022-10-06T04:45:07.810Z,100.00
2022-10-06T04:47:37.426Z,100.00
2022-10-06T04:50:06.085Z,100.00
2022-10-06T04:52:33.933Z,100.00
2022-10-06T04:55:03.295Z,100.00
2022-10-06T04:57:31.365Z,100.00
2022-10-06T05:00:17.969Z,100.00
2022-10-06T05:02:47.530Z,100.00
2022-10-06T05:05:15.620Z,100.00
2022-10-06T05:07:44.962Z,100.00
2022-10-06T05:10:14.782Z,100.00
2022-10-06T05:12:43.083Z,100.00
2022-10-06T05:15:12.542Z,100.00
2022-10-06T05:17:40.869Z,100.00
2022-10-06T05:20:10.947Z,100.00
2022-10-06T05:22:39.137Z,100.00
2022-10-06T05:25:07.958Z,100.00
2022-10-06T05:27:37.182Z,100.00
2022-10-06T05:30:05.717Z,100.00
2022-10-06T05:32:36.109Z,100.00
2022-10-06T05:35:05.424Z,100.00
2022-10-06T05:37:33.354Z,100.00
2022-10-06T05:40:02.509Z,100.00
2022-10-06T05:42:31.102Z,100.00
2022-10-06T05:45:01.470Z,100.00
2022-10-06T05:47:29.899Z,100.00
2022-10-06T05:49:57.905Z,100.00
2022-10-06T05:52:25.985Z,100.00
2022-10-06T05:54:54.516Z,100.00
2022-10-06T05:57:22.617Z,100.00
2022-10-06T05:59:50.516Z,100.00
2022-10-06T06:02:20.307Z,100.00
2022-10-06T06:04:51.479Z,100.00
2022-10-06T06:07:19.637Z,100.00
2022-10-06T06:09:48.284Z,100.00
2022-10-06T06:12:16.611Z,100.00
2022-10-06T06:15:11.492Z,100.00
2022-10-06T06:17:56.667Z,100.00
2022-10-06T06:20:24.627Z,100.00
2022-10-06T06:22:53.424Z,100.00
2022-10-06T06:25:24.226Z,100.00
2022-10-06T06:27:52.141Z,100.00
2022-10-06T06:30:21.263Z,100.00
2022-10-06T06:32:49.189Z,100.00
2022-10-06T06:35:18.495Z,100.00
2022-10-06T06:37:48.839Z,100.00
2022-10-06T06:40:17.023Z,100.00
2022-10-06T06:42:44.951Z,100.00
2022-10-06T06:45:29.089Z,100.00
2022-10-06T06:48:15.463Z,100.00
2022-10-06T06:50:45.785Z,100.00
2022-10-06T06:53:16.166Z,100.00
2022-10-06T06:55:51.087Z,100.00
2022-10-06T06:58:21.740Z,100.00
2022-10-06T07:00:50.456Z,100.00
2022-10-06T07:03:32.966Z,100.00
2022-10-06T07:06:10.485Z,100.00
2022-10-06T07:08:42.661Z,100.00
2022-10-06T07:11:15.863Z,100.00
2022-10-06T07:13:46.064Z,100.00
2022-10-06T07:16:29.841Z,100.00
2022-10-06T07:19:15.797Z,100.00
2022-10-06T07:22:03.164Z,100.00
2022-10-06T07:24:49.018Z,100.00
2022-10-06T07:27:16.958Z,100.00
2022-10-06T07:29:46.782Z,100.00
2022-10-06T07:32:15.132Z,100.00
2022-10-06T07:37:17.684Z,100.00
2022-10-06T07:39:49.552Z,100.00
2022-10-06T07:42:18.467Z,100.00
2022-10-06T07:45:07.766Z,100.00
2022-10-06T07:47:38.890Z,100.00
2022-10-06T07:50:07.928Z,100.00
2022-10-06T07:52:39.363Z,100.00
2022-10-06T07:55:09.069Z,100.00
2022-10-06T07:57:46.047Z,100.00
2022-10-06T08:00:15.616Z,100.00
2022-10-06T08:02:43.576Z,100.00
2022-10-06T08:05:11.624Z,100.00
2022-10-06T08:07:40.989Z,100.00
2022-10-06T08:10:09.649Z,100.00
2022-10-06T08:12:40.103Z,100.00
2022-10-06T08:15:11.334Z,100.00
2022-10-06T08:17:39.581Z,99.94
2022-10-06T08:20:09.787Z,98.46
2022-10-06T08:22:38.774Z,99.21
2022-10-06T08:25:10.735Z,98.20
2022-10-06T08:27:40.443Z,94.77
2022-10-06T08:30:09.269Z,94.67
2022-10-06T08:32:37.472Z,93.18
2022-10-06T08:35:05.632Z,91.50
2022-10-06T08:37:33.445Z,91.20
2022-10-06T08:40:01.316Z,91.02
2022-10-06T08:42:39.685Z,89.79
2022-10-06T08:45:14.522Z,90.41
2022-10-06T08:47:51.639Z,90.34
2022-10-06T08:50:21.348Z,90.26
2022-10-06T08:53:00.789Z,88.26
2022-10-06T08:55:36.233Z,85.42
2022-10-06T08:58:31.219Z,82.72
2022-10-06T09:01:11.159Z,82.13
2022-10-06T09:03:39.251Z,81.19
2022-10-06T09:06:14.852Z,80.53
2022-10-06T09:08:51.089Z,80.10
2022-10-06T09:11:38.094Z,76.03
2022-10-06T09:14:15.184Z,75.31
2022-10-06T09:16:47.869Z,74.45
2022-10-06T09:19:20.378Z,74.63
2022-10-06T09:21:51.345Z,76.93
2022-10-06T09:24:24.577Z,78.67
2022-10-06T09:26:53.042Z,78.96
2022-10-06T09:29:22.360Z,79.58
2022-10-06T09:31:51.013Z,77.31
2022-10-06T09:34:29.101Z,76.22
2022-10-06T09:37:02.025Z,74.20
2022-10-06T09:39:36.396Z,73.99
2022-10-06T09:42:12.400Z,73.53
2022-10-06T09:44:50.841Z,72.03
2022-10-06T09:47:34.742Z,74.15
2022-10-06T09:50:04.633Z,74.11
2022-10-06T09:52:32.520Z,74.67
2022-10-06T09:55:12.883Z,75.19
2022-10-06T09:57:50.054Z,72.44
2022-10-06T10:00:30.393Z,67.20
2022-10-06T10:03:00.966Z,64.46
2022-10-06T10:05:31.035Z,63.56
2022-10-06T10:08:02.757Z,62.19
2022-10-06T10:10:31.130Z,61.33
2022-10-06T10:13:00.665Z,59.38
2022-10-06T10:15:33.297Z,59.50
2022-10-06T10:18:04.055Z,59.28
2022-10-06T10:20:36.377Z,59.11
2022-10-06T10:23:08.288Z,59.92
2022-10-06T10:25:53.933Z,59.55
2022-10-06T10:28:51.612Z,59.61
2022-10-06T10:31:32.067Z,59.80
2022-10-06T10:34:23.080Z,59.35
2022-10-06T10:36:57.508Z,59.42
2022-10-06T10:39:33.472Z,57.70
2022-10-06T10:42:07.421Z,55.40
2022-10-06T10:44:38.860Z,57.34
2022-10-06T10:47:16.010Z,56.76
2022-10-06T10:49:49.631Z,56.42
2022-10-06T10:52:22.028Z,55.08
2022-10-06T10:55:02.166Z,55.43
2022-10-06T10:57:37.902Z,56.93
2022-10-06T11:00:09.568Z,57.30
2022-10-06T11:02:41.570Z,57.39
2022-10-06T11:05:17.548Z,59.18
2022-10-06T11:07:55.705Z,59.02
2022-10-06T11:10:27.717Z,57.33
2022-10-06T11:13:11.206Z,59.60
2022-10-06T11:15:57.492Z,60.30
2022-10-06T11:18:44.103Z,60.70
2022-10-06T11:21:14.831Z,60.74
2022-10-06T11:23:53.551Z,59.39
2022-10-06T11:27:00.529Z,58.67
2022-10-06T11:29:36.424Z,59.41
2022-10-06T11:32:17.769Z,59.13
2022-10-06T11:34:49.644Z,59.13
2022-10-06T11:37:26.292Z,58.93
2022-10-06T11:40:04.240Z,59.33
2022-10-06T11:42:42.104Z,60.80
2022-10-06T11:45:13.879Z,58.33
2022-10-06T11:48:00.471Z,58.45
2022-10-06T11:50:38.290Z,57.30
2022-10-06T11:53:07.449Z,56.41
2022-10-06T11:55:35.367Z,57.35
2022-10-06T11:58:40.747Z,55.95
2022-10-06T12:01:04.812Z,55.53
2022-10-06T12:03:48.237Z,55.15
2022-10-06T12:06:57.691Z,53.89
2022-10-06T12:09:51.703Z,54.04
2022-10-06T12:12:42.255Z,54.15
2022-10-06T12:18:30.717Z,54.18
2022-10-06T12:21:10.150Z,52.99
2022-10-06T12:23:48.322Z,53.23
2022-10-06T12:26:36.054Z,54.42
2022-10-06T12:29:22.450Z,52.28
2022-10-06T12:32:00.245Z,50.74
2022-10-06T12:35:00.281Z,52.24
2022-10-06T12:37:38.237Z,54.26
2022-10-06T12:40:40.280Z,54.77
2022-10-06T12:43:32.429Z,53.19
2022-10-06T12:46:03.249Z,52.77
2022-10-06T12:48:39.411Z,52.89
2022-10-06T12:51:19.168Z,52.21
2022-10-06T12:53:56.757Z,52.66
2022-10-06T12:56:29.313Z,51.15
2022-10-06T12:58:58.818Z,51.94
2022-10-06T13:01:28.244Z,53.49
2022-10-06T13:03:56.346Z,51.25
2022-10-06T13:06:26.070Z,53.18
2022-10-06T13:09:06.249Z,53.03
2022-10-06T13:11:34.176Z,53.53
2022-10-06T13:14:11.709Z,51.46
2022-10-06T13:16:41.858Z,51.54
2022-10-06T13:19:18.291Z,50.09
2022-10-06T13:21:47.531Z,50.13
2022-10-06T13:24:19.378Z,50.71
2022-10-06T13:26:48.122Z,49.62
2022-10-06T13:29:21.790Z,49.84
2022-10-06T13:31:53.098Z,50.49
2022-10-06T13:34:28.716Z,50.43
2022-10-06T13:36:57.436Z,50.62
2022-10-06T13:39:27.013Z,51.16
2022-10-06T13:41:59.225Z,50.54
2022-10-06T13:44:36.334Z,50.55
2022-10-06T13:47:06.843Z,50.21
2022-10-06T13:49:42.043Z,51.54
2022-10-06T13:52:17.967Z,51.03
2022-10-06T13:54:50.890Z,50.15
2022-10-06T13:57:35.643Z,50.98
2022-10-06T14:00:07.948Z,51.08
2022-10-06T14:02:36.516Z,51.20
2022-10-06T14:05:24.093Z,50.70
2022-10-06T14:07:52.570Z,51.48
2022-10-06T14:13:01.665Z,52.92
2022-10-06T14:15:40.426Z,51.45
2022-10-06T14:18:08.443Z,52.09
2022-10-06T14:20:46.915Z,53.49
2022-10-06T14:23:49.843Z,52.49
2022-10-06T14:26:19.446Z,52.25
2022-10-06T14:28:51.396Z,53.18
2022-10-06T14:31:21.730Z,53.80
2022-10-06T14:33:52.240Z,52.84
2022-10-06T14:36:22.961Z,52.96
2022-10-06T14:38:52.345Z,53.30
2022-10-06T14:41:24.911Z,51.97
2022-10-06T14:43:56.658Z,53.24
2022-10-06T14:46:26.850Z,53.22
2022-10-06T14:48:55.332Z,52.67
2022-10-06T14:51:24.559Z,53.39
2022-10-06T14:53:54.363Z,51.92
2022-10-06T14:56:23.872Z,52.21
2022-10-06T14:58:53.011Z,52.21
2022-10-06T15:01:24.756Z,52.63
2022-10-06T15:03:54.825Z,52.72
2022-10-06T15:06:40.160Z,52.19
2022-10-06T15:09:09.876Z,52.05
2022-10-06T15:11:38.794Z,52.15
2022-10-06T15:14:08.654Z,52.93
2022-10-06T15:16:40.564Z,52.86
2022-10-06T15:19:10.998Z,52.96
2022-10-06T15:21:39.991Z,54.02
2022-10-06T15:24:09.573Z,53.04
2022-10-06T15:26:55.290Z,53.40
2022-10-06T15:29:23.207Z,54.04
2022-10-06T15:31:53.141Z,54.74
2022-10-06T15:34:25.284Z,54.09
2022-10-06T15:36:54.321Z,54.92
2022-10-06T15:39:24.705Z,55.08
2022-10-06T15:41:52.866Z,55.64
2022-10-06T15:44:21.219Z,55.35
2022-10-06T15:46:50.868Z,54.71
2022-10-06T15:49:20.917Z,55.38
2022-10-06T15:51:52.766Z,55.07
2022-10-06T15:54:23.673Z,56.27
2022-10-06T15:56:53.395Z,57.83
2022-10-06T15:59:24.066Z,60.01
2022-10-06T16:01:55.872Z,60.06
2022-10-06T16:04:31.446Z,59.15
2022-10-06T16:07:01.422Z,59.68
2022-10-06T16:09:31.173Z,58.93
2022-10-06T16:12:01.724Z,58.68
2022-10-06T16:14:30.359Z,57.39
2022-10-06T16:17:01.964Z,59.65
2022-10-06T16:19:32.226Z,59.22
2022-10-06T16:22:01.981Z,61.31
2022-10-06T16:24:29.883Z,61.82
2022-10-06T16:26:59.836Z,61.00
2022-10-06T16:29:28.883Z,60.94
2022-10-06T16:31:57.507Z,61.56
2022-10-06T16:34:30.378Z,62.50
2022-10-06T16:36:58.366Z,62.40
2022-10-06T16:39:27.741Z,62.09
2022-10-06T16:41:55.761Z,61.29
2022-10-06T16:44:23.768Z,61.60
2022-10-06T16:46:51.662Z,61.97
2022-10-06T16:49:19.866Z,62.09
2022-10-06T16:51:47.839Z,63.09
2022-10-06T16:54:18.217Z,63.72
2022-10-06T16:56:51.451Z,65.75
2022-10-06T16:59:20.882Z,65.90
2022-10-06T17:01:50.200Z,67.06
2022-10-06T17:04:20.090Z,70.70
2022-10-06T17:06:50.044Z,68.72
2022-10-06T17:09:19.305Z,69.29
2022-10-06T17:11:50.153Z,71.48
2022-10-06T17:14:19.034Z,71.74
2022-10-06T17:16:48.218Z,71.84
2022-10-06T17:19:17.442Z,74.95
2022-10-06T17:21:48.121Z,76.50
2022-10-06T17:24:18.584Z,79.00
2022-10-06T17:26:49.392Z,77.96
2022-10-06T17:29:19.374Z,77.26
2022-10-06T17:31:48.379Z,78.89
2022-10-06T17:34:21.160Z,81.51
2022-10-06T17:36:51.621Z,81.30
2022-10-06T17:39:21.189Z,84.41
2022-10-06T17:41:52.611Z,84.32
2022-10-06T17:44:23.244Z,82.21
2022-10-06T17:46:53.916Z,81.54
2022-10-06T17:49:23.958Z,81.05
2022-10-06T17:51:53.390Z,81.27
2022-10-06T17:54:23.830Z,80.80
2022-10-06T17:56:54.804Z,80.76
2022-10-06T17:59:24.622Z,81.95
2022-10-06T18:01:56.339Z,82.53
2022-10-06T18:04:24.964Z,84.99
2022-10-06T18:06:55.006Z,87.51
2022-10-06T18:09:23.119Z,88.61
2022-10-06T18:11:54.897Z,87.50
2022-10-06T18:14:26.138Z,88.93
2022-10-06T18:16:57.679Z,91.42
2022-10-06T18:19:29.982Z,93.53
2022-10-06T18:22:00.567Z,95.13
2022-10-06T18:24:30.350Z,94.21
2022-10-06T18:27:00.930Z,94.17
2022-10-06T18:29:31.119Z,94.42
2022-10-06T18:32:16.048Z,93.63
2022-10-06T18:37:35.281Z,93.99
2022-10-06T18:40:06.177Z,92.88
2022-10-06T18:42:34.517Z,91.15
2022-10-06T18:45:21.365Z,92.24
2022-10-06T18:48:07.004Z,95.36
2022-10-06T18:50:35.141Z,95.59
2022-10-06T18:53:04.452Z,93.63
2022-10-06T18:55:32.605Z,91.84
2022-10-06T18:58:00.464Z,91.36
2022-10-06T19:00:29.710Z,91.69
2022-10-06T19:02:57.713Z,91.69
2022-10-06T19:05:25.802Z,91.14
2022-10-06T19:07:54.506Z,91.97
2022-10-06T19:10:22.957Z,92.03
2022-10-06T19:12:50.898Z,92.24
2022-10-06T19:15:21.136Z,93.15
2022-10-06T19:17:51.086Z,93.08
2022-10-06T19:20:19.805Z,94.59
2022-10-06T19:22:48.344Z,94.46
2022-10-06T19:25:18.740Z,93.76
2022-10-06T19:27:47.018Z,94.55
2022-10-06T19:30:15.887Z,97.85
2022-10-06T19:32:44.514Z,97.76
2022-10-06T19:35:13.731Z,96.39
2022-10-06T19:37:42.081Z,97.37
2022-10-06T19:40:11.415Z,98.66
2022-10-06T19:42:47.479Z,100.00
2022-10-06T19:45:16.484Z,99.83
2022-10-06T19:47:46.445Z,98.01
2022-10-06T19:50:17.167Z,96.78
2022-10-06T19:52:45.411Z,100.00
2022-10-06T19:55:13.422Z,100.00
2022-10-06T19:57:41.801Z,100.00
2022-10-06T20:00:11.237Z,100.00
2022-10-06T20:02:44.783Z,100.00
2022-10-06T20:05:14.237Z,100.00
2022-10-06T20:07:45.407Z,100.00
2022-10-06T20:10:14.808Z,100.00
2022-10-06T20:12:43.118Z,100.00
2022-10-06T20:15:12.824Z,100.00
2022-10-06T20:17:42.283Z,100.00
2022-10-06T20:20:10.522Z,100.00
2022-10-06T20:22:38.371Z,100.00
2022-10-06T20:25:08.050Z,100.00
2022-10-06T20:27:35.944Z,100.00
2022-10-06T20:30:04.016Z,100.00
2022-10-06T20:32:31.865Z,100.00
2022-10-06T20:35:00.121Z,100.00
2022-10-06T20:37:28.039Z,99.12
2022-10-06T20:40:13.507Z,98.45
2022-10-06T20:42:45.061Z,98.39
2022-10-06T20:45:13.166Z,99.70
2022-10-06T20:47:41.405Z,98.13
2022-10-06T20:50:10.821Z,96.77
2022-10-06T20:52:38.681Z,96.16
2022-10-06T20:55:08.742Z,96.06
2022-10-06T20:57:36.897Z,96.00
2022-10-06T21:00:07.284Z,96.49
2022-10-06T21:02:35.391Z,98.25
2022-10-06T21:05:03.474Z,100.00
2022-10-06T21:07:31.704Z,100.00
2022-10-06T21:09:59.776Z,100.00
2022-10-06T21:12:28.607Z,100.00
2022-10-06T21:14:57.529Z,100.00
2022-10-06T21:17:26.858Z,100.00
2022-10-06T21:19:54.884Z,100.00
2022-10-06T21:22:22.822Z,100.00
2022-10-06T21:24:50.836Z,100.00
2022-10-06T21:27:19.265Z,100.00
2022-10-06T21:29:47.830Z,100.00
2022-10-06T21:32:15.839Z,100.00
2022-10-06T21:34:45.151Z,100.00
2022-10-06T21:37:13.906Z,100.00
2022-10-06T21:39:42.313Z,100.00
2022-10-06T21:42:10.408Z,100.00
2022-10-06T21:44:38.408Z,100.00
2022-10-06T21:47:06.696Z,100.00
2022-10-06T21:49:34.760Z,100.00
2022-10-06T21:52:05.525Z,100.00
2022-10-06T21:54:33.620Z,100.00
2022-10-06T21:57:01.655Z,100.00
2022-10-06T21:59:29.644Z,100.00
2022-10-06T22:01:58.317Z,100.00
2022-10-06T22:04:26.506Z,100.00
2022-10-06T22:06:54.452Z,100.00
2022-10-06T22:09:24.033Z,100.00
2022-10-06T22:11:53.004Z,100.00
2022-10-06T22:14:21.263Z,100.00
2022-10-06T22:16:49.552Z,100.00
2022-10-06T22:19:18.515Z,100.00
2022-10-06T22:21:49.262Z,100.00
2022-10-06T22:24:19.473Z,100.00
2022-10-06T22:26:49.856Z,100.00
2022-10-06T22:29:19.255Z,100.00
2022-10-06T22:31:48.737Z,100.00
2022-10-06T22:34:18.905Z,100.00
2022-10-06T22:36:47.160Z,100.00
2022-10-06T22:39:15.224Z,100.00
2022-10-06T22:41:43.415Z,100.00
2022-10-06T22:44:12.835Z,100.00
2022-10-06T22:46:41.103Z,100.00
2022-10-06T22:49:09.139Z,100.00
2022-10-06T22:51:37.258Z,100.00
2022-10-06T22:54:05.708Z,99.70
2022-10-06T22:56:35.217Z,98.86
2022-10-06T22:59:03.650Z,98.57
2022-10-06T23:01:33.835Z,98.14
2022-10-06T23:04:01.951Z,98.70
2022-10-06T23:06:31.455Z,100.00
2022-10-06T23:09:00.246Z,100.00
2022-10-06T23:11:28.748Z,100.00
2022-10-06T23:13:56.803Z,100.00
2022-10-06T23:16:24.984Z,100.00
2022-10-06T23:18:55.220Z,100.00
2022-10-06T23:21:27.602Z,100.00
2022-10-06T23:23:59.187Z,100.00
2022-10-06T23:26:27.735Z,100.00
2022-10-06T23:28:57.728Z,98.43
2022-10-06T23:31:26.800Z,98.54
2022-10-06T23:33:56.674Z,100.00
2022-10-06T23:36:24.833Z,100.00
2022-10-06T23:38:52.867Z,99.68
2022-10-06T23:41:21.546Z,99.67
2022-10-06T23:43:49.908Z,99.61
2022-10-06T23:46:18.600Z,99.42
2022-10-06T23:48:46.601Z,99.60
2022-10-06T23:51:16.918Z,99.21
2022-10-06T23:53:45.145Z,100.00
2022-10-06T23:56:13.814Z,100.00
2022-10-06T23:58:42.828Z,100.00
